Time;durP1;ratioP1;P1;durP2;ratioP2;P2;SDS_P1;SDS_P2;PMS_P1;PMS_P2;Temp;Humidity;BMP_temperature;BMP_pressure;BME280_temperature;BME280_humidity;BME280_pressure;Samples;Min_cycle;Max_cycle;Signal;HPM_P1;HPM_P2
2023/03/28 00:01:01;;;;;;;10.73;5.80;;;3.60;87.60;;;;;;5138360;27;20019;-66
2023/03/28 00:03:28;;;;;;;13.10;5.82;;;3.60;90.00;;;;;;5138230;27;20035;-66
2023/03/28 00:06:00;;;;;;;12.52;6.40;;;3.60;87.70;;;;;;5138282;27;20016;-66
2023/03/28 00:08:27;;;;;;;;;;;3.60;88.80;;;;;;5139281;27;20079;-64
2023/03/28 00:11:03;;;;;;;10.07;5.68;;;3.70;88.40;;;;;;5138141;27;19907;-66
2023/03/28 00:13:29;;;;;;;11.38;5.30;;;3.70;86.90;;;;;;5137949;27;20047;-65
2023/03/28 00:16:01;;;;;;;11.38;4.95;;;3.70;83.70;;;;;;5138779;27;20019;-65
2023/03/28 00:18:27;;;;;;;8.07;4.20;;;3.70;84.60;;;;;;5139023;27;20031;-65
2023/03/28 00:20:53;;;;;;;11.30;5.07;;;3.60;86.10;;;;;;5138516;27;20038;-65
2023/03/28 00:23:18;;;;;;;9.35;4.88;;;3.70;86.20;;;;;;5138548;27;20027;-65
2023/03/28 00:25:44;;;;;;;9.18;5.35;;;3.70;86.40;;;;;;5138569;27;20020;-65
2023/03/28 00:28:10;;;;;;;11.88;5.20;;;3.70;86.90;;;;;;5138652;27;20062;-65
2023/03/28 00:30:36;;;;;;;12.65;5.47;;;3.70;86.40;;;;;;5137868;27;20396;-66
2023/03/28 00:33:03;;;;;;;9.75;5.35;;;3.70;86.80;;;;;;5120698;27;20023;-66
2023/03/28 00:35:30;;;;;;;11.63;5.85;;;3.80;85.40;;;;;;5138660;27;20092;-65
2023/03/28 00:37:57;;;;;;;13.13;5.35;;;3.80;84.80;;;;;;5137528;27;20064;-65
2023/03/28 00:40:24;;;;;;;13.05;6.20;;;3.70;84.10;;;;;;5137294;27;20054;-66
2023/03/28 00:42:51;;;;;;;11.50;5.57;;;3.70;86.20;;;;;;5137604;27;20087;-65
2023/03/28 00:45:20;;;;;;;14.10;6.88;;;3.60;87.50;;;;;;5137487;27;20031;-65
2023/03/28 00:47:54;;;;;;;14.75;7.05;;;3.60;89.70;;;;;;5138175;27;20027;-66
2023/03/28 00:50:20;;;;;;;15.45;8.18;;;3.50;90.80;;;;;;5137223;27;20023;-65
2023/03/28 00:52:56;;;;;;;18.25;8.50;;;3.60;90.20;;;;;;5137716;27;20031;-65
2023/03/28 00:55:27;;;;;;;20.05;8.02;;;3.70;86.30;;;;;;5137316;27;20057;-66
2023/03/28 00:57:54;;;;;;;17.77;8.52;;;3.60;88.10;;;;;;5120312;27;20356;-66
2023/03/28 01:00:22;;;;;;;14.32;8.40;;;3.70;85.80;;;;;;5120254;28;20023;-65
2023/03/28 01:02:51;;;;;;;14.55;8.68;;;3.60;86.90;;;;;;5137225;27;20353;-65
2023/03/28 01:05:23;;;;;;;19.08;9.73;;;3.50;90.60;;;;;;5137250;27;20289;-65
2023/03/28 01:07:54;;;;;;;13.80;9.10;;;3.50;90.10;;;;;;5138005;27;20107;-65
2023/03/28 01:10:22;;;;;;;14.65;9.13;;;3.50;90.60;;;;;;5137264;27;20023;-65
2023/03/28 01:12:50;;;;;;;15.77;8.88;;;3.50;90.30;;;;;;5137935;27;20420;-66
2023/03/28 01:15:18;;;;;;;17.48;8.43;;;3.50;90.70;;;;;;5137130;27;20024;-66
2023/03/28 01:17:51;;;;;;;13.73;8.00;;;3.50;91.00;;;;;;5104914;27;20031;-66
2023/03/28 01:20:45;;;;;;;13.00;8.77;;;3.40;91.30;;;;;;5119978;28;20035;-66
2023/03/28 01:23:25;;;;;;;17.15;8.82;;;3.30;92.60;;;;;;5137056;28;20019;-65
2023/03/28 01:26:27;;;;;;;17.88;8.65;;;3.40;92.00;;;;;;5137976;27;20310;-65
2023/03/28 01:29:29;;;;;;;17.77;7.70;;;3.40;91.20;;;;;;5137816;28;20034;-65
2023/03/28 01:32:08;;;;;;;17.90;8.50;;;3.40;91.30;;;;;;5058319;28;20151;-65
2023/03/28 01:35:24;;;;;;;12.63;7.60;;;3.30;91.70;;;;;;5122486;28;20038;-64
2023/03/28 01:38:01;;;;;;;11.77;7.88;;;3.20;92.40;;;;;;5136912;28;20027;-64
2023/03/28 01:41:01;;;;;;;15.13;8.10;;;3.10;93.80;;;;;;5137352;28;20043;-64
2023/03/28 01:43:38;;;;;;;15.40;8.18;;;3.10;95.10;;;;;;5136843;28;20407;-64
2023/03/28 01:46:34;;;;;;;12.23;8.15;;;3.10;94.00;;;;;;5136667;28;20028;-65
2023/03/28 01:49:29;;;;;;;13.35;7.72;;;3.10;94.60;;;;;;5136682;28;20031;-65
2023/03/28 01:52:14;;;;;;;14.50;7.55;;;3.10;94.60;;;;;;5136727;28;20031;-65
2023/03/28 01:54:52;;;;;;;14.95;7.18;;;3.00;94.40;;;;;;5137506;27;20129;-65
2023/03/28 01:57:28;;;;;;;12.30;7.25;;;2.90;96.20;;;;;;5119586;28;20408;-64
2023/03/28 02:00:14;;;;;;;13.45;7.10;;;2.90;96.30;;;;;;5136729;28;20414;-64
2023/03/28 02:03:17;;;;;;;12.68;7.30;;;2.90;96.40;;;;;;5139390;27;20120;-64
2023/03/28 02:06:01;;;;;;;15.50;7.15;;;2.90;96.40;;;;;;5140685;27;20023;-65
2023/03/28 02:08:32;;;;;;;15.70;7.47;;;3.00;96.00;;;;;;5123335;27;20285;-65
2023/03/28 02:11:21;;;;;;;13.73;7.43;;;2.80;96.90;;;;;;5130287;27;20353;-65
2023/03/28 02:14:21;;;;;;;19.67;8.43;;;2.70;97.40;;;;;;5136959;27;20028;-65
2023/03/28 02:17:16;;;;;;;;;;;2.80;98.00;;;;;;5086502;27;20043;-65
2023/03/28 02:20:08;;;;;;;12.30;6.15;;;2.70;98.10;;;;;;5140941;27;20259;-66
2023/03/28 02:23:01;;;;;;;14.15;5.78;;;2.70;98.20;;;;;;5126773;27;20107;-65
2023/03/28 02:26:01;;;;;;;14.13;6.22;;;2.70;98.10;;;;;;5128018;27;20038;-66
2023/03/28 02:28:56;;;;;;;12.23;6.40;;;2.70;98.90;;;;;;5136913;27;20091;-65
2023/03/28 02:31:43;;;;;;;14.07;5.78;;;2.70;98.40;;;;;;5140195;27;20081;-67
2023/03/28 02:34:09;;;;;;;15.98;6.07;;;2.80;97.90;;;;;;5140191;27;20035;-65
2023/03/28 02:36:53;;;;;;;11.52;6.05;;;2.80;97.90;;;;;;5123288;27;20031;-65
2023/03/28 02:40:13;;;;;;;11.75;5.53;;;2.80;97.60;;;;;;5122948;27;20035;-66
2023/03/28 02:43:01;;;;;;;10.30;5.40;;;2.80;97.30;;;;;;5061481;28;20044;-67
2023/03/28 02:45:40;;;;;;;10.27;5.60;;;2.70;97.20;;;;;;5139967;27;20098;-65
2023/03/28 02:48:37;;;;;;;14.05;5.85;;;2.60;98.70;;;;;;5139868;27;20020;-65
2023/03/28 02:51:13;;;;;;;10.77;6.13;;;2.70;98.30;;;;;;5139709;27;20087;-66
2023/03/28 02:53:43;;;;;;;14.07;5.70;;;2.80;97.10;;;;;;5139674;27;20080;-65
2023/03/28 02:56:49;;;;;;;12.15;5.78;;;2.80;95.80;;;;;;5139741;27;20031;-66
2023/03/28 02:59:29;;;;;;;10.90;6.13;;;2.80;96.50;;;;;;5139529;27;20035;-65
2023/03/28 03:01:55;;;;;;;12.30;6.00;;;2.70;96.30;;;;;;5139793;27;20333;-66
2023/03/28 03:04:21;;;;;;;8.57;5.40;;;2.70;96.10;;;;;;5122482;27;20380;-66
2023/03/28 03:06:49;;;;;;;12.32;6.03;;;2.70;95.40;;;;;;5105281;27;20031;-66
2023/03/28 03:09:16;;;;;;;14.07;6.05;;;2.70;96.10;;;;;;5139336;27;20090;-65
2023/03/28 03:11:42;;;;;;;12.63;5.97;;;2.60;95.90;;;;;;5122239;27;20027;-65
2023/03/28 03:14:08;;;;;;;14.50;6.00;;;2.60;96.20;;;;;;5139260;27;20645;-65
2023/03/28 03:16:37;;;;;;;12.57;5.40;;;2.60;96.60;;;;;;5139237;27;20076;-65
2023/03/28 03:19:04;;;;;;;16.20;5.93;;;2.60;97.20;;;;;;5139125;27;20031;-65
2023/03/28 03:21:30;;;;;;;11.48;5.10;;;2.70;96.40;;;;;;5139892;27;20424;-66
2023/03/28 03:23:56;;;;;;;13.93;5.65;;;2.60;96.30;;;;;;5139160;27;20160;-65
2023/03/28 03:26:22;;;;;;;11.35;5.32;;;2.50;96.80;;;;;;5138999;27;20042;-66
2023/03/28 03:29:00;;;;;;;36.95;18.30;;;2.50;97.10;;;;;;5123164;27;20312;-65
2023/03/28 03:31:26;;;;;;;13.70;6.35;;;2.50;97.20;;;;;;5121740;27;20357;-65
2023/03/28 03:34:23;;;;;;;12.88;5.40;;;2.40;97.30;;;;;;5139517;27;20431;-65
2023/03/28 03:36:53;;;;;;;17.83;5.87;;;2.50;96.90;;;;;;5122511;27;20308;-65
2023/03/28 03:39:21;;;;;;;9.30;5.88;;;2.40;97.30;;;;;;5088117;27;20019;-64
2023/03/28 03:41:47;;;;;;;11.57;5.43;;;2.30;98.30;;;;;;5121337;27;20050;-65
2023/03/28 03:44:13;;;;;;;12.15;5.07;;;2.30;98.20;;;;;;5121775;27;20031;-65
2023/03/28 03:46:39;;;;;;;11.82;5.25;;;2.30;97.90;;;;;;5104530;27;20384;-65
2023/03/28 03:49:07;;;;;;;11.05;5.63;;;2.30;97.90;;;;;;5121719;27;20027;-65
2023/03/28 03:51:33;;;;;;;15.38;5.13;;;2.40;98.00;;;;;;5138540;27;20023;-65
2023/03/28 03:53:59;;;;;;;15.43;5.32;;;2.30;97.60;;;;;;5138456;27;20046;-65
2023/03/28 03:56:37;;;;;;;11.55;5.40;;;2.30;97.90;;;;;;5138396;27;20027;-65
2023/03/28 03:59:03;;;;;;;9.00;5.38;;;2.30;97.90;;;;;;5138233;27;20338;-65
2023/03/28 04:01:31;;;;;;;12.70;5.45;;;2.30;98.50;;;;;;5121388;27;20027;-64
2023/03/28 04:04:32;;;;;;;11.45;5.18;;;2.20;99.00;;;;;;5084671;28;20393;-65
2023/03/28 04:07:14;;;;;;;9.05;5.18;;;2.20;99.00;;;;;;5130534;27;20031;-64
2023/03/28 04:09:40;;;;;;;8.38;4.95;;;2.20;99.90;;;;;;5138064;27;20039;-65
2023/03/28 04:12:06;;;;;;;8.48;4.65;;;2.20;99.60;;;;;;5121076;27;20099;-65
2023/03/28 04:14:43;;;;;;;12.45;5.50;;;2.30;99.30;;;;;;5122537;27;20039;-64
2023/03/28 04:17:28;;;;;;;9.70;5.30;;;2.20;99.60;;;;;;5139111;27;20046;-64
2023/03/28 04:19:56;;;;;;;10.32;5.00;;;2.10;99.50;;;;;;5137833;27;20396;-64
2023/03/28 04:22:29;;;;;;;9.50;5.20;;;2.10;99.90;;;;;;5137950;27;20340;-64
2023/03/28 04:24:55;;;;;;;;;;;2.10;99.90;;;;;;5138178;27;20042;-65
2023/03/28 04:27:34;;;;;;;12.05;4.72;;;2.20;99.90;;;;;;5122571;27;19919;-64
2023/03/28 04:30:00;;;;;;;9.77;5.28;;;2.20;99.50;;;;;;5120727;27;20095;-65
2023/03/28 04:32:49;;;;;;;10.23;4.82;;;2.20;99.50;;;;;;5124071;27;20042;-65
2023/03/28 04:35:22;;;;;;;10.82;4.80;;;2.30;97.90;;;;;;5121593;27;20055;-64
2023/03/28 04:37:52;;;;;;;8.98;4.63;;;2.30;97.60;;;;;;5138473;27;20068;-65
2023/03/28 04:40:20;;;;;;;12.48;4.85;;;2.20;97.20;;;;;;5137405;27;20047;-65
2023/03/28 04:42:55;;;;;;;11.98;5.32;;;2.10;99.30;;;;;;5106520;27;20038;-65
2023/03/28 04:45:31;;;;;;;11.10;4.90;;;2.10;99.60;;;;;;5137819;27;20069;-64
2023/03/28 04:48:05;;;;;;;12.32;5.28;;;2.20;98.30;;;;;;5105692;27;20300;-64
2023/03/28 04:50:31;;;;;;;10.13;4.72;;;2.20;98.00;;;;;;5137471;27;20085;-64
2023/03/28 04:52:57;;;;;;;13.40;5.70;;;2.20;97.70;;;;;;5120330;27;20026;-64
2023/03/28 04:55:24;;;;;;;8.55;4.57;;;2.10;97.90;;;;;;5120320;27;20311;-64
2023/03/28 04:57:50;;;;;;;15.20;5.22;;;2.10;98.80;;;;;;5137303;27;20403;-65
2023/03/28 05:00:21;;;;;;;12.30;5.47;;;2.10;98.60;;;;;;5104364;27;20031;-65
2023/03/28 05:03:21;;;;;;;9.38;4.78;;;2.10;98.70;;;;;;5065518;27;20040;-65
2023/03/28 05:06:01;;;;;;;8.85;4.72;;;2.10;98.60;;;;;;5122065;27;20086;-65
2023/03/28 05:08:27;;;;;;;9.95;5.10;;;2.00;99.20;;;;;;5120173;27;20126;-66
2023/03/28 05:10:54;;;;;;;12.45;5.10;;;2.00;99.60;;;;;;5120042;28;20058;-64
2023/03/28 05:13:20;;;;;;;17.02;5.53;;;2.10;99.60;;;;;;5137215;27;20117;-64
2023/03/28 05:15:58;;;;;;;9.80;4.90;;;2.10;97.50;;;;;;5121971;28;20034;-64
2023/03/28 05:18:42;;;;;;;8.73;5.13;;;2.10;97.70;;;;;;5123090;27;20088;-65
2023/03/28 05:21:08;;;;;;;10.65;5.05;;;2.00;98.20;;;;;;5119851;28;20035;-65
2023/03/28 05:23:34;;;;;;;12.25;5.03;;;2.00;99.00;;;;;;5102875;28;20034;-64
2023/03/28 05:26:04;;;;;;;11.15;5.65;;;1.90;99.40;;;;;;5136961;28;20433;-64
2023/03/28 05:28:32;;;;;;;14.48;4.80;;;2.00;99.30;;;;;;5136984;28;20042;-65
2023/03/28 05:30:59;;;;;;;10.15;4.68;;;1.90;98.80;;;;;;5137015;28;20073;-64
2023/03/28 05:33:26;;;;;;;10.52;5.25;;;2.00;99.60;;;;;;5136852;28;20376;-66
2023/03/28 05:35:53;;;;;;;8.98;4.43;;;1.90;99.60;;;;;;5119812;28;20047;-64
2023/03/28 05:38:20;;;;;;;10.23;5.00;;;1.90;99.90;;;;;;5122086;27;20349;-65
2023/03/28 05:40:51;;;;;;;9.98;5.32;;;1.90;99.70;;;;;;5124811;27;20047;-65
2023/03/28 05:43:17;;;;;;;9.07;4.72;;;2.00;99.70;;;;;;5141984;27;20308;-64
2023/03/28 05:45:43;;;;;;;10.68;5.07;;;1.90;99.70;;;;;;5141207;27;20034;-65
2023/03/28 05:48:17;;;;;;;12.13;4.82;;;2.00;99.90;;;;;;5140987;27;20031;-65
2023/03/28 05:50:46;;;;;;;10.93;4.60;;;2.00;99.90;;;;;;5141094;27;20055;-64
2023/03/28 05:53:12;;;;;;;11.50;5.32;;;2.10;99.90;;;;;;5123641;27;20428;-64
2023/03/28 05:55:38;;;;;;;12.23;5.18;;;2.20;99.90;;;;;;5106728;27;20152;-65
2023/03/28 05:58:05;;;;;;;14.13;5.32;;;2.20;99.40;;;;;;5123682;27;20062;-64
2023/03/28 06:00:41;;;;;;;10.20;4.43;;;2.30;99.90;;;;;;5140672;27;20039;-66
2023/03/28 06:03:08;;;;;;;12.95;5.65;;;2.50;98.10;;;;;;5140651;27;20038;-65
2023/03/28 06:05:38;;;;;;;10.95;4.95;;;2.60;97.60;;;;;;5140778;27;20107;-65
2023/03/28 06:08:16;;;;;;;11.25;5.20;;;2.70;97.60;;;;;;5140652;27;20027;-65
2023/03/28 06:10:42;;;;;;;9.90;4.90;;;2.70;97.10;;;;;;5106648;27;20369;-65
2023/03/28 06:13:19;;;;;;;12.70;4.50;;;2.80;94.60;;;;;;5125013;27;20035;-65
2023/03/28 06:15:46;;;;;;;9.90;4.18;;;2.60;93.10;;;;;;5090382;27;20312;-65
2023/03/28 06:18:12;;;;;;;10.43;4.70;;;2.70;94.20;;;;;;5106477;27;20033;-65
2023/03/28 06:20:43;;;;;;;10.63;4.22;;;2.50;93.90;;;;;;5124099;27;20136;-65
2023/03/28 06:23:09;;;;;;;10.60;4.75;;;2.50;95.30;;;;;;5123219;27;20039;-66
2023/03/28 06:25:36;;;;;;;12.45;4.75;;;2.70;96.10;;;;;;5123272;27;20027;-66
2023/03/28 06:28:02;;;;;;;13.18;4.85;;;2.70;93.20;;;;;;5140167;27;20049;-65
2023/03/28 06:30:29;;;;;;;11.15;4.60;;;2.80;92.70;;;;;;5106714;27;20054;-66
2023/03/28 06:32:56;;;;;;;10.18;4.75;;;2.90;92.80;;;;;;5123756;27;20114;-65
2023/03/28 06:35:22;;;;;;;14.05;5.32;;;3.90;91.90;;;;;;5140192;27;20125;-66
2023/03/28 06:37:49;;;;;;;11.35;4.25;;;3.80;73.30;;;;;;5140027;27;20042;-65
2023/03/28 06:40:21;;;;;;;13.68;4.63;;;3.70;70.00;;;;;;5107426;27;20043;-66
2023/03/28 06:42:47;;;;;;;13.77;4.45;;;3.70;70.30;;;;;;5138757;28;20450;-66
2023/03/28 06:45:19;;;;;;;15.63;4.95;;;3.60;73.10;;;;;;5122625;28;20027;-62
2023/03/28 06:48:07;;;;;;;11.18;4.20;;;3.60;74.90;;;;;;5110467;27;20031;-65
2023/03/28 06:50:53;;;;;;;14.63;4.70;;;4.00;72.60;;;;;;5139617;27;20043;-65
2023/03/28 06:53:20;;;;;;;10.02;4.22;;;3.90;63.60;;;;;;5138490;28;20031;-66
2023/03/28 06:55:52;;;;;;;9.38;4.40;;;4.00;63.80;;;;;;5121581;28;20038;-66
2023/03/28 06:58:19;;;;;;;9.00;4.07;;;4.00;59.00;;;;;;5139202;28;20130;-66
2023/03/28 07:00:51;;;;;;;7.30;4.18;;;3.70;62.80;;;;;;5138441;28;20410;-67
2023/03/28 07:03:28;;;;;;;15.32;4.57;;;3.80;70.40;;;;;;5138844;28;20039;-66
2023/03/28 07:05:55;;;;;;;7.15;4.03;;;3.90;70.00;;;;;;5121746;28;20096;-67
2023/03/28 07:08:21;;;;;;;29.92;12.60;;;4.20;64.60;;;;;;5121155;28;20404;-68
2023/03/28 07:10:47;;;;;;;10.63;4.47;;;4.50;59.80;;;;;;5121374;28;20118;-67
2023/03/28 07:13:13;;;;;;;12.30;5.20;;;4.50;52.00;;;;;;5104247;28;20054;-67
2023/03/28 07:15:59;;;;;;;10.52;4.32;;;4.20;60.20;;;;;;5138616;27;20395;-68
2023/03/28 07:18:25;;;;;;;8.95;4.90;;;4.10;66.40;;;;;;5138193;28;20031;-67
2023/03/28 07:20:53;;;;;;;10.93;4.63;;;4.00;70.70;;;;;;5120922;28;20034;-68
2023/03/28 07:23:20;;;;;;;15.30;4.47;;;3.90;72.90;;;;;;5138004;28;20108;-68
2023/03/28 07:25:47;;;;;;;10.60;4.47;;;3.90;75.50;;;;;;5138310;28;20023;-68
2023/03/28 07:28:12;;;;;;;10.70;4.45;;;4.00;69.60;;;;;;5120892;28;20092;-69
2023/03/28 07:30:38;;;;;;;13.38;4.50;;;3.90;69.00;;;;;;5138057;28;20039;-69
2023/03/28 07:33:05;;;;;;;10.63;4.35;;;3.90;69.50;;;;;;5137904;28;20357;-68
2023/03/28 07:35:31;;;;;;;13.32;4.13;;;3.80;72.70;;;;;;5137944;28;20042;-68
2023/03/28 07:38:00;;;;;;;9.00;4.45;;;3.80;72.00;;;;;;5138315;28;20053;-68
2023/03/28 07:40:34;;;;;;;12.82;4.70;;;3.90;72.10;;;;;;5079289;27;1208722;-69
2023/03/28 07:43:02;;;;;;;13.43;4.20;;;4.10;70.30;;;;;;5138801;27;20324;-69
2023/03/28 07:45:28;;;;;;;12.60;4.65;;;4.20;59.50;;;;;;5138782;27;20042;-69
2023/03/28 07:47:54;;;;;;;15.38;4.82;;;4.20;62.00;;;;;;5121637;27;20023;-69
2023/03/28 07:50:21;;;;;;;12.07;4.20;;;4.30;58.20;;;;;;5121616;27;20122;-69
2023/03/28 07:52:49;;;;;;;10.65;4.15;;;4.50;48.20;;;;;;5121777;27;20080;-68
2023/03/28 07:55:15;;;;;;;14.60;4.22;;;4.60;52.70;;;;;;5121508;27;20055;-70
2023/03/28 07:57:45;;;;;;;15.07;4.40;;;4.60;36.10;;;;;;5122210;27;20031;-69
2023/03/28 08:00:23;;;;;;;9.25;3.92;;;4.60;40.60;;;;;;5137552;27;20027;-69
2023/03/28 08:03:08;;;;;;;8.23;3.63;;;4.80;40.40;;;;;;5139097;27;20035;-69
2023/03/28 08:05:36;;;;;;;7.70;3.72;;;5.00;28.60;;;;;;5121315;27;20130;-69
2023/03/28 08:08:04;;;;;;;7.43;3.90;;;5.10;25.70;;;;;;5088302;27;20143;-69
2023/03/28 08:10:31;;;;;;;7.88;3.50;;;5.30;24.70;;;;;;5138266;27;20387;-69
2023/03/28 08:12:57;;;;;;;7.82;3.70;;;5.40;21.90;;;;;;5121210;27;20083;-69
2023/03/28 08:15:24;;;;;;;15.45;4.28;;;5.40;15.10;;;;;;5121377;27;20045;-68
2023/03/28 08:17:49;;;;;;;11.45;3.63;;;5.40;19.30;;;;;;5138832;27;20065;-68
2023/03/28 08:20:18;;;;;;;11.25;3.83;;;5.40;17.50;;;;;;5137978;27;20054;-68
2023/03/28 08:22:56;;;;;;;10.38;4.15;;;5.10;21.90;;;;;;5137999;27;20054;-68
2023/03/28 08:25:43;;;;;;;11.45;3.20;;;5.20;23.90;;;;;;5138603;27;20035;-67
2023/03/28 08:28:10;;;;;;;8.73;3.50;;;5.40;13.30;;;;;;5120891;27;20019;-67
2023/03/28 08:30:36;;;;;;;10.55;3.10;;;5.40;15.30;;;;;;5138428;27;20031;-67
2023/03/28 08:33:03;;;;;;;15.98;3.33;;;5.50;16.20;;;;;;5137737;27;20313;-68
2023/03/28 08:35:31;;;;;;;10.98;2.90;;;5.70;3.70;;;;;;5137775;27;20035;-67
2023/03/28 08:38:01;;;;;;;8.93;2.83;;;5.70;1.00;;;;;;5137803;27;20038;-69
2023/03/28 08:40:28;;;;;;;14.00;3.53;;;5.90;2.90;;;;;;5138181;27;20065;-68
2023/03/28 08:43:11;;;;;;;8.90;2.80;;;6.30;1.00;;;;;;5121615;27;20156;-68
2023/03/28 08:45:55;;;;;;;11.20;2.75;;;6.30;1.00;;;;;;5137543;27;20046;-67
2023/03/28 08:48:39;;;;;;;8.23;2.50;;;6.30;1.00;;;;;;5120351;27;20122;-69
2023/03/28 08:51:24;;;;;;;8.05;2.58;;;6.40;1.00;;;;;;5120388;27;20105;-67
2023/03/28 08:54:24;;;;;;;6.80;2.08;;;6.70;1.00;;;;;;5137463;27;20070;-68
2023/03/28 08:57:00;;;;;;;4.60;2.22;;;6.20;1.00;;;;;;5120275;27;20312;-67
2023/03/28 08:59:59;;;;;;;7.28;2.45;;;6.20;1.00;;;;;;5137376;27;20051;-68
2023/03/28 09:02:27;;;;;;;7.78;2.25;;;6.20;1.00;;;;;;5120645;27;20069;-67
2023/03/28 09:04:54;;;;;;;8.88;2.00;;;6.20;1.00;;;;;;5137963;27;20023;-68
2023/03/28 09:07:31;;;;;;;7.68;2.38;;;6.30;1.00;;;;;;5137128;27;20031;-69
2023/03/28 09:10:03;;;;;;;5.20;1.75;;;6.50;1.00;;;;;;5120279;28;20034;-69
2023/03/28 09:12:50;;;;;;;3.67;2.10;;;6.70;1.00;;;;;;5123795;27;20096;-69
2023/03/28 09:15:41;;;;;;;8.95;2.17;;;6.90;1.00;;;;;;5137024;27;20403;-66
2023/03/28 09:18:30;;;;;;;5.18;1.88;;;6.80;1.00;;;;;;5137120;27;20031;-68
2023/03/28 09:21:26;;;;;;;9.45;2.40;;;6.80;1.00;;;;;;5137036;27;20027;-68
2023/03/28 09:24:11;;;;;;;5.88;2.17;;;7.20;1.00;;;;;;5136803;28;20019;-67
2023/03/28 09:26:59;;;;;;;6.32;1.98;;;7.40;1.00;;;;;;5137093;28;20031;-68
2023/03/28 09:29:26;;;;;;;6.10;2.13;;;7.10;1.00;;;;;;5137037;27;20015;-68
2023/03/28 09:32:01;;;;;;;5.45;1.90;;;7.20;1.00;;;;;;5137148;28;20045;-68
2023/03/28 09:34:39;;;;;;;14.48;2.50;;;7.40;1.00;;;;;;5136933;28;20035;-68
2023/03/28 09:37:29;;;;;;;6.72;1.77;;;7.70;1.00;;;;;;5119765;28;20073;-68
2023/03/28 09:40:02;;;;;;;5.53;2.03;;;7.90;1.00;;;;;;5119630;28;20418;-67
2023/03/28 09:42:41;;;;;;;7.78;1.80;;;7.80;99.90;;;;;;5121199;28;20027;-63
2023/03/28 09:45:34;;;;;;;5.20;1.50;;;7.70;99.90;;;;;;5136791;27;20353;-66
2023/03/28 09:48:24;;;;;;;6.43;1.58;;;7.60;99.90;;;;;;5137326;28;20046;-65
2023/03/28 09:50:51;;;;;;;6.32;1.80;;;7.80;99.90;;;;;;5137362;28;20042;-65
2023/03/28 09:53:24;;;;;;;6.80;1.85;;;7.70;99.90;;;;;;5119509;28;20339;-67
2023/03/28 09:55:53;;;;;;;4.75;1.90;;;8.00;99.90;;;;;;5137979;28;20101;-66
2023/03/28 09:58:19;;;;;;;8.65;2.20;;;8.30;99.90;;;;;;5137503;27;20027;-67
2023/03/28 10:01:30;;;;;;;4.07;1.65;;;8.00;99.90;;;;;;5137554;27;20400;-65
2023/03/28 10:04:28;;;;;;;5.60;1.73;;;8.20;56.20;;;;;;5137205;28;20110;-63
2023/03/28 10:07:44;;;;;;;4.97;2.00;;;8.30;99.90;;;;;;5136541;28;20368;-62
2023/03/28 10:10:39;;;;;;;8.30;2.15;;;8.50;99.90;;;;;;5125028;27;20045;-64
2023/03/28 10:13:10;;;;;;;8.20;2.03;;;8.60;99.90;;;;;;5137677;27;20074;-63
2023/03/28 10:15:43;;;;;;;8.07;2.45;;;8.60;99.90;;;;;;5119686;28;20028;-63
2023/03/28 10:18:26;;;;;;;8.88;1.95;;;8.60;99.90;;;;;;5136837;28;20035;-64
2023/03/28 10:21:30;;;;;;;6.72;2.30;;;8.40;48.70;;;;;;5107697;28;20126;-63
2023/03/28 10:24:15;;;;;;;5.77;2.23;;;8.50;1.00;;;;;;5137880;27;20037;-63
2023/03/28 10:26:44;;;;;;;8.50;2.33;;;8.40;1.00;;;;;;5141052;27;20134;-63
2023/03/28 10:29:12;;;;;;;7.43;1.92;;;8.30;1.00;;;;;;5140015;27;20023;-63
2023/03/28 10:31:45;;;;;;;9.65;2.10;;;8.30;1.00;;;;;;5140800;27;20023;-62
2023/03/28 10:34:28;;;;;;;6.47;2.28;;;8.30;31.80;;;;;;5126006;27;20070;-60
2023/03/28 10:37:23;;;;;;;6.43;2.47;;;8.30;59.20;;;;;;5140324;27;20451;-62
2023/03/28 10:40:28;;;;;;;10.95;2.58;;;8.30;95.90;;;;;;5139807;27;20100;-62
2023/03/28 10:42:58;;;;;;;3.88;1.88;;;8.50;1.00;;;;;;5135452;27;20043;-65
2023/03/28 10:45:49;;;;;;;7.13;2.95;;;8.40;99.90;;;;;;5140293;27;20042;-62
2023/03/28 10:48:28;;;;;;;7.30;2.60;;;8.70;99.90;;;;;;5139926;27;20016;-62
2023/03/28 10:50:59;;;;;;;4.90;2.20;;;8.50;1.00;;;;;;5139807;27;20118;-63
2023/03/28 10:53:47;;;;;;;7.00;2.83;;;8.30;99.90;;;;;;5139752;27;20312;-64
2023/03/28 10:56:40;;;;;;;6.80;2.20;;;8.40;99.90;;;;;;5139731;27;20062;-63
2023/03/28 10:59:29;;;;;;;7.43;2.38;;;8.70;1.00;;;;;;5139681;27;20103;-61
2023/03/28 11:02:16;;;;;;;5.70;2.13;;;8.70;99.90;;;;;;5139690;27;20031;-62
2023/03/28 11:05:10;;;;;;;7.38;2.00;;;8.70;1.00;;;;;;5139810;27;20023;-62
2023/03/28 11:07:40;;;;;;;8.80;2.42;;;8.80;99.90;;;;;;5140654;27;20385;-61
2023/03/28 11:11:01;;;;;;;5.53;1.98;;;8.90;51.60;;;;;;5124846;27;20035;-62
2023/03/28 11:13:54;;;;;;;4.55;1.83;;;9.00;1.00;;;;;;5140186;27;20035;-64
2023/03/28 11:16:41;;;;;;;6.22;1.88;;;9.20;99.90;;;;;;5139588;27;20295;-64
2023/03/28 11:19:39;;;;;;;4.07;1.67;;;9.20;1.00;;;;;;5101842;27;20031;-63
2023/03/28 11:22:31;;;;;;;7.63;2.28;;;9.80;99.90;;;;;;5139547;27;20054;-63
2023/03/28 11:25:15;;;;;;;7.47;2.20;;;10.10;1.00;;;;;;5139944;27;20031;-62
2023/03/28 11:28:06;;;;;;;;;;;9.90;1.00;;;;;;5140750;27;20038;-61
2023/03/28 11:30:37;;;;;;;6.18;2.22;;;10.10;51.60;;;;;;5139125;27;20377;-63
2023/03/28 11:33:37;;;;;;;6.53;1.70;;;9.80;99.90;;;;;;5124332;27;20038;-65
2023/03/28 11:36:17;;;;;;;3.70;1.60;;;10.10;99.90;;;;;;5137826;27;20276;-63
2023/03/28 11:38:51;;;;;;;5.40;1.70;;;10.40;1.00;;;;;;5138733;27;20031;-63
2023/03/28 11:41:23;;;;;;;7.15;1.80;;;9.70;99.90;;;;;;5121149;27;20047;-63
2023/03/28 11:44:30;;;;;;;5.55;1.80;;;9.50;1.00;;;;;;5138902;27;20050;-62
2023/03/28 11:47:22;;;;;;;4.78;1.75;;;9.60;88.80;;;;;;5138912;27;20031;-62
2023/03/28 11:50:07;;;;;;;3.58;1.65;;;9.60;99.90;;;;;;5138707;27;20304;-63
2023/03/28 11:53:22;;;;;;;4.97;1.70;;;9.60;99.90;;;;;;5126961;27;20035;-62
2023/03/28 11:56:34;;;;;;;5.22;1.90;;;9.40;1.00;;;;;;5138555;27;20032;-61
2023/03/28 11:59:13;;;;;;;;;;;9.70;99.90;;;;;;5138782;27;20092;-61
2023/03/28 12:01:46;;;;;;;3.28;1.55;;;10.20;1.00;;;;;;5138709;27;19915;-60
2023/03/28 12:04:24;;;;;;;5.70;1.60;;;10.60;99.90;;;;;;5138372;27;20019;-62
2023/03/28 12:07:02;;;;;;;7.70;1.90;;;10.20;1.00;;;;;;5121241;27;20410;-61
2023/03/28 12:09:43;;;;;;;5.25;1.90;;;9.80;1.00;;;;;;5138326;27;20027;-61
2023/03/28 12:12:18;;;;;;;3.72;1.63;;;9.50;99.90;;;;;;5138279;27;20230;-62
2023/03/28 12:15:04;;;;;;;4.30;1.75;;;9.90;1.00;;;;;;5138154;27;20050;-64
2023/03/28 12:17:59;;;;;;;4.75;1.70;;;9.90;1.00;;;;;;5138609;27;20073;-60
2023/03/28 12:20:38;;;;;;;5.35;2.15;;;9.80;99.90;;;;;;5138710;27;20042;-61
2023/03/28 12:23:22;;;;;;;4.47;2.08;;;10.10;99.90;;;;;;5137902;27;20023;-62
2023/03/28 12:26:22;;;;;;;3.78;1.40;;;10.40;99.90;;;;;;5130179;27;20307;-62
2023/03/28 12:28:53;;;;;;;4.63;1.80;;;10.80;1.00;;;;;;5137837;27;20027;-61
2023/03/28 12:31:29;;;;;;;4.65;2.10;;;10.70;1.00;;;;;;5138852;27;20067;-61
2023/03/28 12:34:25;;;;;;;6.28;2.30;;;11.40;99.90;;;;;;5121893;27;20115;-62
2023/03/28 12:37:25;;;;;;;6.13;1.83;;;12.90;1.00;;;;;;5100431;27;20034;-60
2023/03/28 12:40:12;;;;;;;8.07;2.03;;;13.20;99.90;;;;;;5120950;27;20399;-61
2023/03/28 12:42:42;;;;;;;7.50;1.90;;;13.50;1.00;;;;;;5137697;27;20399;-61
2023/03/28 12:45:14;;;;;;;5.47;1.88;;;14.00;99.90;;;;;;5138358;27;20027;-62
2023/03/28 12:47:46;;;;;;;5.43;1.88;;;13.10;1.00;;;;;;5137322;27;20098;-62
2023/03/28 12:50:38;;;;;;;6.50;1.70;;;12.80;1.00;;;;;;5120570;27;20027;-62
2023/03/28 12:53:10;;;;;;;9.02;2.58;;;13.50;99.90;;;;;;5129321;27;20296;-61
2023/03/28 12:55:41;;;;;;;5.60;1.90;;;13.60;1.00;;;;;;5137821;27;20399;-61
2023/03/28 12:58:12;;;;;;;7.28;2.30;;;13.50;99.90;;;;;;5120272;27;20027;-60
2023/03/28 13:01:25;;;;;;;6.57;2.28;;;12.70;1.00;;;;;;5138043;27;20405;-62
2023/03/28 13:04:41;;;;;;;4.47;2.00;;;12.30;99.90;;;;;;5115592;27;20115;-62
2023/03/28 13:07:25;;;;;;;5.75;2.28;;;12.20;1.00;;;;;;5137185;27;20360;-61
2023/03/28 13:09:59;;;;;;;4.53;1.90;;;11.80;28.00;;;;;;5138430;27;20038;-61
2023/03/28 13:12:29;;;;;;;8.35;2.80;;;11.60;1.00;;;;;;5138081;27;20024;-62
2023/03/28 13:15:26;;;;;;;4.68;2.03;;;11.70;1.00;;;;;;5137966;27;20026;-62
2023/03/28 13:18:18;;;;;;;5.93;2.03;;;11.70;10.00;;;;;;5138065;27;20133;-62
2023/03/28 13:20:46;;;;;;;5.18;1.90;;;11.70;1.00;;;;;;5137870;27;20046;-62
2023/03/28 13:23:14;;;;;;;4.68;2.28;;;11.70;97.20;;;;;;5137128;27;20046;-61
2023/03/28 13:25:42;;;;;;;7.35;2.20;;;11.70;99.90;;;;;;5137925;27;20031;-62
2023/03/28 13:28:11;;;;;;;8.25;2.40;;;11.40;1.00;;;;;;5137065;28;20020;-61
2023/03/28 13:31:02;;;;;;;6.05;2.67;;;11.20;99.90;;;;;;5137683;28;20102;-61
2023/03/28 13:33:32;;;;;;;6.93;2.67;;;11.20;1.00;;;;;;5137953;27;20280;-63
2023/03/28 13:35:57;;;;;;;6.03;2.38;;;11.10;1.00;;;;;;5137801;27;20051;-60
2023/03/28 13:38:26;;;;;;;6.18;2.58;;;11.00;1.00;;;;;;5137785;27;20288;-61
2023/03/28 13:40:55;;;;;;;6.80;2.83;;;11.00;99.90;;;;;;5137424;28;20377;-60
2023/03/28 13:44:00;;;;;;;6.10;2.30;;;11.40;22.60;;;;;;5136898;28;20406;-60